sensor_id;sensor_type;location;lat;lon;timestamp;P1;durP1;ratioP1;P2;durP2;ratioP2
78875;SDS011;68253;52.506;5.486;2023-06-19T00:00:32;9.70;;;5.10;;
78875;SDS011;68253;52.506;5.486;2023-06-19T00:02:58;10.30;;;5.35;;
78875;SDS011;68253;52.506;5.486;2023-06-19T00:05:24;9.93;;;5.82;;
78875;SDS011;68253;52.506;5.486;2023-06-19T00:07:51;11.43;;;6.05;;
78875;SDS011;68253;52.506;5.486;2023-06-19T00:10:17;11.02;;;5.50;;
78875;SDS011;68253;52.506;5.486;2023-06-19T00:12:43;11.77;;;5.50;;
78875;SDS011;68253;52.506;5.486;2023-06-19T00:15:10;11.73;;;5.93;;
78875;SDS011;68253;52.506;5.486;2023-06-19T00:17:36;10.95;;;5.60;;
78875;SDS011;68253;52.506;5.486;2023-06-19T00:20:03;10.48;;;5.28;;
78875;SDS011;68253;52.506;5.486;2023-06-19T00:22:31;10.55;;;5.82;;
78875;SDS011;68253;52.506;5.486;2023-06-19T00:24:57;11.65;;;6.97;;
78875;SDS011;68253;52.506;5.486;2023-06-19T00:27:24;10.48;;;5.60;;
78875;SDS011;68253;52.506;5.486;2023-06-19T00:29:50;11.90;;;6.25;;
78875;SDS011;68253;52.506;5.486;2023-06-19T00:32:18;9.77;;;5.03;;
78875;SDS011;68253;52.506;5.486;2023-06-19T00:34:45;11.00;;;5.43;;
78875;SDS011;68253;52.506;5.486;2023-06-19T00:37:12;10.35;;;6.10;;
78875;SDS011;68253;52.506;5.486;2023-06-19T00:39:41;11.30;;;5.93;;
78875;SDS011;68253;52.506;5.486;2023-06-19T00:42:07;9.95;;;5.03;;
78875;SDS011;68253;52.506;5.486;2023-06-19T00:44:33;11.05;;;5.93;;
78875;SDS011;68253;52.506;5.486;2023-06-19T00:47:00;11.18;;;6.25;;
78875;SDS011;68253;52.506;5.486;2023-06-19T00:49:29;12.23;;;6.40;;
78875;SDS011;68253;52.506;5.486;2023-06-19T00:51:56;11.25;;;6.40;;
78875;SDS011;68253;52.506;5.486;2023-06-19T00:54:23;12.77;;;6.35;;
78875;SDS011;68253;52.506;5.486;2023-06-19T00:56:49;9.60;;;4.82;;
78875;SDS011;68253;52.506;5.486;2023-06-19T00:59:17;10.07;;;5.25;;
78875;SDS011;68253;52.506;5.486;2023-06-19T01:01:44;11.52;;;5.65;;
78875;SDS011;68253;52.506;5.486;2023-06-19T01:04:11;11.18;;;5.60;;
78875;SDS011;68253;52.506;5.486;2023-06-19T01:07:02;10.60;;;5.72;;
78875;SDS011;68253;52.506;5.486;2023-06-19T01:09:42;10.98;;;5.80;;
78875;SDS011;68253;52.506;5.486;2023-06-19T01:12:15;12.45;;;5.03;;
78875;SDS011;68253;52.506;5.486;2023-06-19T01:14:48;12.15;;;5.95;;
78875;SDS011;68253;52.506;5.486;2023-06-19T01:17:20;9.25;;;4.43;;
78875;SDS011;68253;52.506;5.486;2023-06-19T01:19:47;11.68;;;4.75;;
78875;SDS011;68253;52.506;5.486;2023-06-19T01:22:26;9.50;;;4.53;;
78875;SDS011;68253;52.506;5.486;2023-06-19T01:24:53;10.13;;;4.22;;
78875;SDS011;68253;52.506;5.486;2023-06-19T01:27:20;10.02;;;4.72;;
78875;SDS011;68253;52.506;5.486;2023-06-19T01:29:47;9.27;;;4.60;;
78875;SDS011;68253;52.506;5.486;2023-06-19T01:32:15;10.20;;;4.95;;
78875;SDS011;68253;52.506;5.486;2023-06-19T01:34:46;9.45;;;4.68;;
78875;SDS011;68253;52.506;5.486;2023-06-19T01:37:14;10.43;;;5.30;;
78875;SDS011;68253;52.506;5.486;2023-06-19T01:39:41;9.50;;;4.75;;
78875;SDS011;68253;52.506;5.486;2023-06-19T01:42:10;10.07;;;4.97;;
78875;SDS011;68253;52.506;5.486;2023-06-19T01:44:37;9.43;;;4.38;;
78875;SDS011;68253;52.506;5.486;2023-06-19T01:47:07;10.02;;;4.60;;
78875;SDS011;68253;52.506;5.486;2023-06-19T01:49:35;9.90;;;4.35;;
78875;SDS011;68253;52.506;5.486;2023-06-19T01:52:03;8.50;;;3.92;;
78875;SDS011;68253;52.506;5.486;2023-06-19T01:54:29;8.88;;;4.10;;
78875;SDS011;68253;52.506;5.486;2023-06-19T01:56:56;9.15;;;3.85;;
78875;SDS011;68253;52.506;5.486;2023-06-19T01:59:22;9.55;;;3.78;;
78875;SDS011;68253;52.506;5.486;2023-06-19T02:01:49;8.48;;;3.50;;
78875;SDS011;68253;52.506;5.486;2023-06-19T02:04:15;8.98;;;3.20;;
78875;SDS011;68253;52.506;5.486;2023-06-19T02:06:41;7.03;;;2.38;;
78875;SDS011;68253;52.506;5.486;2023-06-19T02:09:07;7.88;;;2.10;;
78875;SDS011;68253;52.506;5.486;2023-06-19T02:11:37;6.75;;;1.92;;
78875;SDS011;68253;52.506;5.486;2023-06-19T02:14:03;5.93;;;1.33;;
78875;SDS011;68253;52.506;5.486;2023-06-19T02:16:29;5.93;;;1.60;;
78875;SDS011;68253;52.506;5.486;2023-06-19T02:18:55;5.80;;;1.75;;
78875;SDS011;68253;52.506;5.486;2023-06-19T02:21:22;8.00;;;1.88;;
78875;SDS011;68253;52.506;5.486;2023-06-19T02:23:51;6.40;;;1.60;;
78875;SDS011;68253;52.506;5.486;2023-06-19T02:26:17;6.45;;;1.88;;
78875;SDS011;68253;52.506;5.486;2023-06-19T02:28:44;5.97;;;1.85;;
78875;SDS011;68253;52.506;5.486;2023-06-19T02:31:11;7.30;;;1.80;;
78875;SDS011;68253;52.506;5.486;2023-06-19T02:33:37;6.20;;;1.50;;
78875;SDS011;68253;52.506;5.486;2023-06-19T02:36:03;6.35;;;1.70;;
78875;SDS011;68253;52.506;5.486;2023-06-19T02:38:30;4.70;;;1.42;;
78875;SDS011;68253;52.506;5.486;2023-06-19T02:40:56;6.03;;;1.50;;
78875;SDS011;68253;52.506;5.486;2023-06-19T02:43:27;5.72;;;1.50;;
78875;SDS011;68253;52.506;5.486;2023-06-19T02:45:53;5.80;;;1.70;;
78875;SDS011;68253;52.506;5.486;2023-06-19T02:48:19;4.70;;;1.45;;
78875;SDS011;68253;52.506;5.486;2023-06-19T02:50:45;4.07;;;1.40;;
78875;SDS011;68253;52.506;5.486;2023-06-19T02:53:11;6.10;;;1.70;;
78875;SDS011;68253;52.506;5.486;2023-06-19T02:55:38;4.82;;;1.40;;
78875;SDS011;68253;52.506;5.486;2023-06-19T02:58:04;5.97;;;1.77;;
78875;SDS011;68253;52.506;5.486;2023-06-19T03:00:30;5.43;;;1.65;;
78875;SDS011;68253;52.506;5.486;2023-06-19T03:02:56;6.18;;;1.98;;
78875;SDS011;68253;52.506;5.486;2023-06-19T03:05:24;6.50;;;1.73;;
78875;SDS011;68253;52.506;5.486;2023-06-19T03:07:52;6.93;;;1.92;;
78875;SDS011;68253;52.506;5.486;2023-06-19T03:10:18;8.18;;;1.83;;
78875;SDS011;68253;52.506;5.486;2023-06-19T03:12:45;5.45;;;1.55;;
78875;SDS011;68253;52.506;5.486;2023-06-19T03:15:11;5.93;;;1.92;;
78875;SDS011;68253;52.506;5.486;2023-06-19T03:17:41;7.03;;;1.88;;
78875;SDS011;68253;52.506;5.486;2023-06-19T03:20:10;6.70;;;1.90;;
78875;SDS011;68253;52.506;5.486;2023-06-19T03:22:44;6.55;;;2.30;;
78875;SDS011;68253;52.506;5.486;2023-06-19T03:25:13;6.70;;;2.00;;
78875;SDS011;68253;52.506;5.486;2023-06-19T03:27:39;7.90;;;2.47;;
78875;SDS011;68253;52.506;5.486;2023-06-19T03:30:06;7.93;;;2.80;;
78875;SDS011;68253;52.506;5.486;2023-06-19T03:32:38;8.75;;;2.53;;
78875;SDS011;68253;52.506;5.486;2023-06-19T03:35:05;7.05;;;2.40;;
78875;SDS011;68253;52.506;5.486;2023-06-19T03:37:34;7.70;;;2.53;;
78875;SDS011;68253;52.506;5.486;2023-06-19T03:40:02;7.07;;;2.60;;
78875;SDS011;68253;52.506;5.486;2023-06-19T03:42:33;8.25;;;3.17;;
78875;SDS011;68253;52.506;5.486;2023-06-19T03:45:00;7.50;;;2.78;;
78875;SDS011;68253;52.506;5.486;2023-06-19T03:47:26;7.78;;;2.78;;
78875;SDS011;68253;52.506;5.486;2023-06-19T03:49:53;8.70;;;3.22;;
78875;SDS011;68253;52.506;5.486;2023-06-19T03:52:19;8.13;;;2.90;;
78875;SDS011;68253;52.506;5.486;2023-06-19T03:54:45;8.05;;;3.03;;
78875;SDS011;68253;52.506;5.486;2023-06-19T03:57:11;6.72;;;2.60;;
78875;SDS011;68253;52.506;5.486;2023-06-19T03:59:37;7.82;;;3.00;;
78875;SDS011;68253;52.506;5.486;2023-06-19T04:02:03;8.85;;;3.40;;
78875;SDS011;68253;52.506;5.486;2023-06-19T04:04:29;10.82;;;3.72;;
78875;SDS011;68253;52.506;5.486;2023-06-19T04:06:55;8.68;;;3.22;;
78875;SDS011;68253;52.506;5.486;2023-06-19T04:09:22;9.88;;;3.97;;
78875;SDS011;68253;52.506;5.486;2023-06-19T04:11:49;8.73;;;3.95;;
78875;SDS011;68253;52.506;5.486;2023-06-19T04:14:15;8.45;;;3.55;;
78875;SDS011;68253;52.506;5.486;2023-06-19T04:16:41;10.10;;;4.88;;
78875;SDS011;68253;52.506;5.486;2023-06-19T04:19:09;8.50;;;3.58;;
78875;SDS011;68253;52.506;5.486;2023-06-19T04:21:35;11.43;;;4.47;;
78875;SDS011;68253;52.506;5.486;2023-06-19T04:24:01;10.48;;;5.43;;
78875;SDS011;68253;52.506;5.486;2023-06-19T04:28:56;9.43;;;4.45;;
78875;SDS011;68253;52.506;5.486;2023-06-19T04:31:22;13.25;;;6.10;;
78875;SDS011;68253;52.506;5.486;2023-06-19T04:33:49;12.32;;;6.13;;
78875;SDS011;68253;52.506;5.486;2023-06-19T04:36:15;10.75;;;5.05;;
78875;SDS011;68253;52.506;5.486;2023-06-19T04:38:41;12.18;;;5.72;;
78875;SDS011;68253;52.506;5.486;2023-06-19T04:41:07;10.63;;;5.20;;
78875;SDS011;68253;52.506;5.486;2023-06-19T04:43:33;10.80;;;5.45;;
78875;SDS011;68253;52.506;5.486;2023-06-19T04:45:59;10.52;;;5.03;;
78875;SDS011;68253;52.506;5.486;2023-06-19T04:48:26;10.15;;;4.47;;
78875;SDS011;68253;52.506;5.486;2023-06-19T04:50:52;12.20;;;5.60;;
78875;SDS011;68253;52.506;5.486;2023-06-19T04:53:18;9.10;;;4.43;;
78875;SDS011;68253;52.506;5.486;2023-06-19T04:55:44;10.48;;;5.03;;
78875;SDS011;68253;52.506;5.486;2023-06-19T04:58:10;10.15;;;5.25;;
78875;SDS011;68253;52.506;5.486;2023-06-19T05:00:36;9.70;;;4.68;;
78875;SDS011;68253;52.506;5.486;2023-06-19T05:03:02;10.98;;;5.72;;
78875;SDS011;68253;52.506;5.486;2023-06-19T05:05:28;12.50;;;7.05;;
78875;SDS011;68253;52.506;5.486;2023-06-19T05:07:55;11.82;;;6.00;;
78875;SDS011;68253;52.506;5.486;2023-06-19T05:10:21;13.70;;;7.10;;
78875;SDS011;68253;52.506;5.486;2023-06-19T05:12:47;16.77;;;8.70;;
78875;SDS011;68253;52.506;5.486;2023-06-19T05:15:13;17.17;;;9.23;;
78875;SDS011;68253;52.506;5.486;2023-06-19T05:17:39;18.70;;;10.88;;
78875;SDS011;68253;52.506;5.486;2023-06-19T05:20:05;20.00;;;10.63;;
78875;SDS011;68253;52.506;5.486;2023-06-19T05:22:33;23.95;;;12.23;;
78875;SDS011;68253;52.506;5.486;2023-06-19T05:25:00;21.48;;;10.77;;
78875;SDS011;68253;52.506;5.486;2023-06-19T05:27:26;24.08;;;13.40;;
78875;SDS011;68253;52.506;5.486;2023-06-19T05:29:52;18.27;;;9.82;;
78875;SDS011;68253;52.506;5.486;2023-06-19T05:32:18;21.98;;;11.70;;
78875;SDS011;68253;52.506;5.486;2023-06-19T05:34:44;20.17;;;10.68;;
78875;SDS011;68253;52.506;5.486;2023-06-19T05:37:11;19.30;;;9.38;;
78875;SDS011;68253;52.506;5.486;2023-06-19T05:39:40;20.92;;;10.52;;
78875;SDS011;68253;52.506;5.486;2023-06-19T05:42:06;17.23;;;8.63;;
78875;SDS011;68253;52.506;5.486;2023-06-19T05:44:32;15.93;;;8.07;;
78875;SDS011;68253;52.506;5.486;2023-06-19T05:46:58;13.65;;;6.40;;
78875;SDS011;68253;52.506;5.486;2023-06-19T05:49:25;14.27;;;6.68;;
78875;SDS011;68253;52.506;5.486;2023-06-19T05:51:51;13.73;;;6.28;;
78875;SDS011;68253;52.506;5.486;2023-06-19T05:54:17;12.48;;;5.30;;
78875;SDS011;68253;52.506;5.486;2023-06-19T05:56:43;11.82;;;5.20;;
78875;SDS011;68253;52.506;5.486;2023-06-19T05:59:09;11.68;;;5.32;;
78875;SDS011;68253;52.506;5.486;2023-06-19T06:01:35;11.70;;;4.93;;
78875;SDS011;68253;52.506;5.486;2023-06-19T06:04:02;10.60;;;4.65;;
78875;SDS011;68253;52.506;5.486;2023-06-19T06:06:28;9.63;;;4.10;;
78875;SDS011;68253;52.506;5.486;2023-06-19T06:08:54;9.05;;;4.10;;
78875;SDS011;68253;52.506;5.486;2023-06-19T06:11:21;10.02;;;4.05;;
78875;SDS011;68253;52.506;5.486;2023-06-19T06:13:47;8.63;;;3.55;;
78875;SDS011;68253;52.506;5.486;2023-06-19T06:16:13;9.35;;;3.42;;
78875;SDS011;68253;52.506;5.486;2023-06-19T06:18:39;9.00;;;3.72;;
78875;SDS011;68253;52.506;5.486;2023-06-19T06:21:06;9.38;;;4.05;;
78875;SDS011;68253;52.506;5.486;2023-06-19T06:23:32;8.52;;;3.42;;
78875;SDS011;68253;52.506;5.486;2023-06-19T06:25:58;9.23;;;3.53;;
78875;SDS011;68253;52.506;5.486;2023-06-19T06:28:28;8.98;;;3.42;;
78875;SDS011;68253;52.506;5.486;2023-06-19T06:30:54;9.02;;;3.70;;
78875;SDS011;68253;52.506;5.486;2023-06-19T06:33:21;8.43;;;3.60;;
78875;SDS011;68253;52.506;5.486;2023-06-19T06:35:47;8.95;;;3.58;;
78875;SDS011;68253;52.506;5.486;2023-06-19T06:38:13;8.32;;;3.40;;
78875;SDS011;68253;52.506;5.486;2023-06-19T06:40:39;7.20;;;2.40;;
78875;SDS011;68253;52.506;5.486;2023-06-19T06:43:07;7.28;;;2.40;;
78875;SDS011;68253;52.506;5.486;2023-06-19T06:45:33;6.53;;;2.53;;
78875;SDS011;68253;52.506;5.486;2023-06-19T06:47:59;8.98;;;3.10;;
78875;SDS011;68253;52.506;5.486;2023-06-19T06:50:25;9.00;;;3.22;;
78875;SDS011;68253;52.506;5.486;2023-06-19T06:52:51;7.13;;;2.75;;
78875;SDS011;68253;52.506;5.486;2023-06-19T06:55:17;7.25;;;2.85;;
78875;SDS011;68253;52.506;5.486;2023-06-19T06:57:43;8.13;;;2.80;;
78875;SDS011;68253;52.506;5.486;2023-06-19T07:00:09;7.50;;;2.70;;
78875;SDS011;68253;52.506;5.486;2023-06-19T07:02:37;8.32;;;3.25;;
78875;SDS011;68253;52.506;5.486;2023-06-19T07:05:06;7.30;;;2.70;;
78875;SDS011;68253;52.506;5.486;2023-06-19T07:07:32;9.93;;;3.90;;
78875;SDS011;68253;52.506;5.486;2023-06-19T07:09:58;8.85;;;3.45;;
78875;SDS011;68253;52.506;5.486;2023-06-19T07:12:25;8.57;;;3.88;;
78875;SDS011;68253;52.506;5.486;2023-06-19T07:14:53;8.45;;;3.35;;
78875;SDS011;68253;52.506;5.486;2023-06-19T07:19:46;9.45;;;4.43;;
78875;SDS011;68253;52.506;5.486;2023-06-19T07:22:12;12.13;;;4.55;;
78875;SDS011;68253;52.506;5.486;2023-06-19T07:24:42;10.23;;;4.55;;
78875;SDS011;68253;52.506;5.486;2023-06-19T07:27:08;12.05;;;5.90;;
78875;SDS011;68253;52.506;5.486;2023-06-19T07:29:34;13.30;;;6.82;;
78875;SDS011;68253;52.506;5.486;2023-06-19T07:32:00;13.77;;;7.32;;
78875;SDS011;68253;52.506;5.486;2023-06-19T07:34:28;13.27;;;7.40;;
78875;SDS011;68253;52.506;5.486;2023-06-19T07:36:54;13.13;;;6.85;;
78875;SDS011;68253;52.506;5.486;2023-06-19T07:39:20;17.10;;;9.02;;
78875;SDS011;68253;52.506;5.486;2023-06-19T07:41:46;18.50;;;8.75;;
78875;SDS011;68253;52.506;5.486;2023-06-19T07:44:13;16.83;;;8.18;;
78875;SDS011;68253;52.506;5.486;2023-06-19T07:46:39;19.02;;;10.65;;
78875;SDS011;68253;52.506;5.486;2023-06-19T07:49:05;20.10;;;9.32;;
78875;SDS011;68253;52.506;5.486;2023-06-19T07:51:31;17.25;;;9.65;;
78875;SDS011;68253;52.506;5.486;2023-06-19T07:53:57;17.70;;;9.38;;
78875;SDS011;68253;52.506;5.486;2023-06-19T07:56:23;16.63;;;8.60;;
78875;SDS011;68253;52.506;5.486;2023-06-19T07:58:50;17.48;;;8.85;;
78875;SDS011;68253;52.506;5.486;2023-06-19T08:01:16;16.83;;;9.23;;
78875;SDS011;68253;52.506;5.486;2023-06-19T08:03:42;17.02;;;10.20;;
78875;SDS011;68253;52.506;5.486;2023-06-19T08:06:08;17.35;;;9.57;;
78875;SDS011;68253;52.506;5.486;2023-06-19T08:08:34;16.85;;;9.73;;
78875;SDS011;68253;52.506;5.486;2023-06-19T08:11:01;16.52;;;8.48;;
78875;SDS011;68253;52.506;5.486;2023-06-19T08:13:27;15.55;;;7.55;;
78875;SDS011;68253;52.506;5.486;2023-06-19T08:15:53;16.98;;;8.75;;
78875;SDS011;68253;52.506;5.486;2023-06-19T08:18:19;14.45;;;7.28;;
78875;SDS011;68253;52.506;5.486;2023-06-19T08:20:45;15.63;;;8.35;;
78875;SDS011;68253;52.506;5.486;2023-06-19T08:23:11;15.95;;;8.68;;
78875;SDS011;68253;52.506;5.486;2023-06-19T08:25:37;13.77;;;7.38;;
78875;SDS011;68253;52.506;5.486;2023-06-19T08:28:03;16.90;;;8.40;;
78875;SDS011;68253;52.506;5.486;2023-06-19T08:30:30;15.93;;;8.55;;
78875;SDS011;68253;52.506;5.486;2023-06-19T08:32:56;16.83;;;9.20;;
78875;SDS011;68253;52.506;5.486;2023-06-19T08:35:22;17.33;;;9.65;;
78875;SDS011;68253;52.506;5.486;2023-06-19T08:37:48;15.43;;;8.60;;
78875;SDS011;68253;52.506;5.486;2023-06-19T08:40:15;15.07;;;7.78;;
78875;SDS011;68253;52.506;5.486;2023-06-19T08:42:41;16.75;;;8.63;;
78875;SDS011;68253;52.506;5.486;2023-06-19T08:45:08;16.40;;;7.85;;
78875;SDS011;68253;52.506;5.486;2023-06-19T08:47:37;15.30;;;6.72;;
78875;SDS011;68253;52.506;5.486;2023-06-19T08:50:03;14.00;;;7.22;;
78875;SDS011;68253;52.506;5.486;2023-06-19T08:52:29;12.93;;;6.38;;
78875;SDS011;68253;52.506;5.486;2023-06-19T08:54:56;12.38;;;6.18;;
78875;SDS011;68253;52.506;5.486;2023-06-19T08:57:32;13.57;;;6.50;;
78875;SDS011;68253;52.506;5.486;2023-06-19T08:59:58;11.88;;;5.15;;
78875;SDS011;68253;52.506;5.486;2023-06-19T09:02:25;12.60;;;6.20;;
78875;SDS011;68253;52.506;5.486;2023-06-19T09:05:08;12.93;;;5.50;;
78875;SDS011;68253;52.506;5.486;2023-06-19T09:07:37;12.90;;;6.32;;
78875;SDS011;68253;52.506;5.486;2023-06-19T09:10:17;13.88;;;6.45;;
78875;SDS011;68253;52.506;5.486;2023-06-19T09:12:56;13.98;;;6.70;;
78875;SDS011;68253;52.506;5.486;2023-06-19T09:15:30;11.20;;;6.03;;
78875;SDS011;68253;52.506;5.486;2023-06-19T09:20:37;14.75;;;5.97;;
78875;SDS011;68253;52.506;5.486;2023-06-19T09:23:12;13.77;;;6.45;;
78875;SDS011;68253;52.506;5.486;2023-06-19T09:25:54;11.63;;;6.05;;
78875;SDS011;68253;52.506;5.486;2023-06-19T09:28:24;13.75;;;6.57;;
78875;SDS011;68253;52.506;5.486;2023-06-19T09:31:01;15.77;;;7.03;;
78875;SDS011;68253;52.506;5.486;2023-06-19T09:33:29;15.00;;;8.35;;
78875;SDS011;68253;52.506;5.486;2023-06-19T09:35:58;12.20;;;5.90;;
78875;SDS011;68253;52.506;5.486;2023-06-19T09:38:29;11.50;;;6.10;;
78875;SDS011;68253;52.506;5.486;2023-06-19T09:40:57;14.15;;;7.85;;
78875;SDS011;68253;52.506;5.486;2023-06-19T09:43:33;13.80;;;6.57;;
78875;SDS011;68253;52.506;5.486;2023-06-19T09:46:04;13.30;;;6.72;;
78875;SDS011;68253;52.506;5.486;2023-06-19T09:48:31;14.70;;;7.93;;
78875;SDS011;68253;52.506;5.486;2023-06-19T09:51:02;13.27;;;7.00;;
78875;SDS011;68253;52.506;5.486;2023-06-19T09:53:32;11.95;;;5.88;;
78875;SDS011;68253;52.506;5.486;2023-06-19T09:55:59;13.70;;;6.82;;
78875;SDS011;68253;52.506;5.486;2023-06-19T09:58:26;13.60;;;6.47;;
78875;SDS011;68253;52.506;5.486;2023-06-19T10:00:53;14.25;;;7.43;;
78875;SDS011;68253;52.506;5.486;2023-06-19T10:03:20;14.52;;;8.90;;
78875;SDS011;68253;52.506;5.486;2023-06-19T10:05:58;15.48;;;7.60;;
78875;SDS011;68253;52.506;5.486;2023-06-19T10:08:38;16.45;;;8.55;;
78875;SDS011;68253;52.506;5.486;2023-06-19T10:11:09;12.82;;;6.90;;
78875;SDS011;68253;52.506;5.486;2023-06-19T10:13:37;13.70;;;6.88;;
78875;SDS011;68253;52.506;5.486;2023-06-19T10:16:05;15.43;;;8.55;;
78875;SDS011;68253;52.506;5.486;2023-06-19T10:18:32;12.95;;;6.55;;
78875;SDS011;68253;52.506;5.486;2023-06-19T10:21:19;13.82;;;7.55;;
78875;SDS011;68253;52.506;5.486;2023-06-19T10:23:56;13.45;;;6.82;;
78875;SDS011;68253;52.506;5.486;2023-06-19T10:26:35;12.57;;;6.88;;
78875;SDS011;68253;52.506;5.486;2023-06-19T10:29:13;14.82;;;6.70;;
78875;SDS011;68253;52.506;5.486;2023-06-19T10:31:43;19.90;;;9.32;;
78875;SDS011;68253;52.506;5.486;2023-06-19T10:34:10;15.93;;;7.82;;
78875;SDS011;68253;52.506;5.486;2023-06-19T10:36:37;11.43;;;5.50;;
78875;SDS011;68253;52.506;5.486;2023-06-19T10:39:03;12.90;;;6.93;;
78875;SDS011;68253;52.506;5.486;2023-06-19T10:41:30;12.23;;;6.95;;
78875;SDS011;68253;52.506;5.486;2023-06-19T10:46:31;13.85;;;8.20;;
78875;SDS011;68253;52.506;5.486;2023-06-19T10:48:59;15.73;;;6.88;;
78875;SDS011;68253;52.506;5.486;2023-06-19T10:51:27;12.90;;;6.70;;
78875;SDS011;68253;52.506;5.486;2023-06-19T10:53:54;14.50;;;8.02;;
78875;SDS011;68253;52.506;5.486;2023-06-19T10:56:21;15.25;;;8.35;;
78875;SDS011;68253;52.506;5.486;2023-06-19T10:58:48;13.80;;;5.85;;
78875;SDS011;68253;52.506;5.486;2023-06-19T11:01:21;13.20;;;6.90;;
78875;SDS011;68253;52.506;5.486;2023-06-19T11:03:48;14.15;;;6.90;;
78875;SDS011;68253;52.506;5.486;2023-06-19T11:06:19;12.95;;;6.70;;
78875;SDS011;68253;52.506;5.486;2023-06-19T11:08:50;11.43;;;5.40;;
78875;SDS011;68253;52.506;5.486;2023-06-19T11:11:18;13.18;;;7.10;;
78875;SDS011;68253;52.506;5.486;2023-06-19T11:13:45;15.48;;;8.23;;
78875;SDS011;68253;52.506;5.486;2023-06-19T11:16:14;16.23;;;9.05;;
78875;SDS011;68253;52.506;5.486;2023-06-19T11:18:40;10.73;;;5.57;;
78875;SDS011;68253;52.506;5.486;2023-06-19T11:21:06;16.42;;;8.02;;
78875;SDS011;68253;52.506;5.486;2023-06-19T11:23:32;12.63;;;6.18;;
78875;SDS011;68253;52.506;5.486;2023-06-19T11:26:05;11.82;;;6.78;;
78875;SDS011;68253;52.506;5.486;2023-06-19T11:28:31;13.70;;;6.78;;
78875;SDS011;68253;52.506;5.486;2023-06-19T11:31:01;16.23;;;9.07;;
78875;SDS011;68253;52.506;5.486;2023-06-19T11:33:29;12.77;;;6.00;;
78875;SDS011;68253;52.506;5.486;2023-06-19T11:35:59;13.02;;;6.10;;
78875;SDS011;68253;52.506;5.486;2023-06-19T11:38:27;14.02;;;7.05;;
78875;SDS011;68253;52.506;5.486;2023-06-19T11:40:54;12.27;;;6.78;;
78875;SDS011;68253;52.506;5.486;2023-06-19T11:45:53;14.18;;;7.90;;
78875;SDS011;68253;52.506;5.486;2023-06-19T11:48:38;15.50;;;8.85;;
78875;SDS011;68253;52.506;5.486;2023-06-19T11:51:05;14.07;;;7.35;;
78875;SDS011;68253;52.506;5.486;2023-06-19T11:53:34;12.70;;;6.25;;
78875;SDS011;68253;52.506;5.486;2023-06-19T11:56:00;12.30;;;6.55;;
78875;SDS011;68253;52.506;5.486;2023-06-19T11:58:27;10.40;;;5.20;;
78875;SDS011;68253;52.506;5.486;2023-06-19T12:00:53;13.68;;;7.07;;
78875;SDS011;68253;52.506;5.486;2023-06-19T12:03:21;14.55;;;7.18;;
78875;SDS011;68253;52.506;5.486;2023-06-19T12:05:47;11.93;;;5.70;;
78875;SDS011;68253;52.506;5.486;2023-06-19T12:08:14;11.32;;;5.43;;
78875;SDS011;68253;52.506;5.486;2023-06-19T12:10:40;11.65;;;5.75;;
78875;SDS011;68253;52.506;5.486;2023-06-19T12:13:06;9.80;;;4.80;;
78875;SDS011;68253;52.506;5.486;2023-06-19T12:15:32;10.65;;;5.28;;
78875;SDS011;68253;52.506;5.486;2023-06-19T12:17:59;12.93;;;6.07;;
78875;SDS011;68253;52.506;5.486;2023-06-19T12:20:25;11.57;;;5.57;;
78875;SDS011;68253;52.506;5.486;2023-06-19T12:22:51;10.40;;;5.22;;
78875;SDS011;68253;52.506;5.486;2023-06-19T12:25:17;12.85;;;6.15;;
78875;SDS011;68253;52.506;5.486;2023-06-19T12:27:43;12.18;;;5.82;;
78875;SDS011;68253;52.506;5.486;2023-06-19T12:30:09;9.82;;;4.50;;
78875;SDS011;68253;52.506;5.486;2023-06-19T12:32:36;10.00;;;4.97;;
78875;SDS011;68253;52.506;5.486;2023-06-19T12:35:02;12.85;;;6.38;;
78875;SDS011;68253;52.506;5.486;2023-06-19T12:37:29;11.02;;;4.97;;
78875;SDS011;68253;52.506;5.486;2023-06-19T12:39:55;10.95;;;4.88;;
78875;SDS011;68253;52.506;5.486;2023-06-19T12:42:21;10.18;;;4.35;;
78875;SDS011;68253;52.506;5.486;2023-06-19T12:44:47;8.32;;;3.28;;
78875;SDS011;68253;52.506;5.486;2023-06-19T12:47:14;10.07;;;5.03;;
78875;SDS011;68253;52.506;5.486;2023-06-19T12:49:40;11.20;;;4.95;;
78875;SDS011;68253;52.506;5.486;2023-06-19T12:52:06;10.00;;;4.60;;
78875;SDS011;68253;52.506;5.486;2023-06-19T12:54:33;9.32;;;4.60;;
78875;SDS011;68253;52.506;5.486;2023-06-19T12:56:59;10.45;;;4.82;;
78875;SDS011;68253;52.506;5.486;2023-06-19T12:59:25;11.00;;;5.03;;
78875;SDS011;68253;52.506;5.486;2023-06-19T13:01:51;11.18;;;5.60;;
78875;SDS011;68253;52.506;5.486;2023-06-19T13:04:17;11.18;;;5.65;;
78875;SDS011;68253;52.506;5.486;2023-06-19T13:06:44;11.93;;;4.68;;
78875;SDS011;68253;52.506;5.486;2023-06-19T13:09:10;10.10;;;5.00;;
78875;SDS011;68253;52.506;5.486;2023-06-19T13:11:36;8.40;;;4.03;;
78875;SDS011;68253;52.506;5.486;2023-06-19T13:14:02;10.85;;;4.80;;
78875;SDS011;68253;52.506;5.486;2023-06-19T13:16:28;10.15;;;4.70;;
78875;SDS011;68253;52.506;5.486;2023-06-19T13:21:22;11.23;;;4.53;;
78875;SDS011;68253;52.506;5.486;2023-06-19T13:23:49;9.93;;;5.03;;
78875;SDS011;68253;52.506;5.486;2023-06-19T13:26:15;9.77;;;3.83;;
78875;SDS011;68253;52.506;5.486;2023-06-19T13:28:41;10.05;;;4.25;;
78875;SDS011;68253;52.506;5.486;2023-06-19T13:31:07;11.38;;;4.25;;
78875;SDS011;68253;52.506;5.486;2023-06-19T13:33:33;11.05;;;4.28;;
78875;SDS011;68253;52.506;5.486;2023-06-19T13:35:59;11.02;;;4.60;;
78875;SDS011;68253;52.506;5.486;2023-06-19T13:38:25;10.02;;;4.32;;
78875;SDS011;68253;52.506;5.486;2023-06-19T13:40:51;8.63;;;3.83;;
78875;SDS011;68253;52.506;5.486;2023-06-19T13:43:17;9.50;;;3.88;;
78875;SDS011;68253;52.506;5.486;2023-06-19T13:45:45;11.13;;;4.05;;
78875;SDS011;68253;52.506;5.486;2023-06-19T13:48:11;8.68;;;3.58;;
78875;SDS011;68253;52.506;5.486;2023-06-19T13:50:37;8.20;;;3.25;;
78875;SDS011;68253;52.506;5.486;2023-06-19T13:53:03;8.85;;;3.65;;
78875;SDS011;68253;52.506;5.486;2023-06-19T13:55:29;9.20;;;3.55;;
78875;SDS011;68253;52.506;5.486;2023-06-19T13:57:56;9.45;;;3.97;;
78875;SDS011;68253;52.506;5.486;2023-06-19T14:00:22;9.27;;;3.40;;
78875;SDS011;68253;52.506;5.486;2023-06-19T14:02:48;8.93;;;3.60;;
78875;SDS011;68253;52.506;5.486;2023-06-19T14:05:15;9.32;;;3.25;;
78875;SDS011;68253;52.506;5.486;2023-06-19T14:07:41;10.65;;;4.65;;
78875;SDS011;68253;52.506;5.486;2023-06-19T14:10:08;8.38;;;3.30;;
78875;SDS011;68253;52.506;5.486;2023-06-19T14:12:35;8.60;;;3.45;;
78875;SDS011;68253;52.506;5.486;2023-06-19T14:15:01;9.38;;;3.33;;
78875;SDS011;68253;52.506;5.486;2023-06-19T14:17:27;8.73;;;3.60;;
78875;SDS011;68253;52.506;5.486;2023-06-19T14:19:53;8.38;;;3.30;;
78875;SDS011;68253;52.506;5.486;2023-06-19T14:22:21;9.82;;;3.67;;
78875;SDS011;68253;52.506;5.486;2023-06-19T14:24:47;9.68;;;3.17;;
78875;SDS011;68253;52.506;5.486;2023-06-19T14:27:13;8.27;;;3.00;;
78875;SDS011;68253;52.506;5.486;2023-06-19T14:29:39;7.82;;;3.00;;
78875;SDS011;68253;52.506;5.486;2023-06-19T14:32:06;6.78;;;2.50;;
78875;SDS011;68253;52.506;5.486;2023-06-19T14:34:32;8.52;;;3.58;;
78875;SDS011;68253;52.506;5.486;2023-06-19T14:36:58;8.32;;;2.58;;
78875;SDS011;68253;52.506;5.486;2023-06-19T14:39:26;9.07;;;3.75;;
78875;SDS011;68253;52.506;5.486;2023-06-19T14:41:53;8.60;;;2.80;;
78875;SDS011;68253;52.506;5.486;2023-06-19T14:44:19;8.95;;;3.35;;
78875;SDS011;68253;52.506;5.486;2023-06-19T14:46:45;8.82;;;2.88;;
78875;SDS011;68253;52.506;5.486;2023-06-19T14:49:13;7.13;;;2.80;;
78875;SDS011;68253;52.506;5.486;2023-06-19T14:51:39;8.70;;;3.30;;
78875;SDS011;68253;52.506;5.486;2023-06-19T14:54:07;7.97;;;2.85;;